sensor_id;sensor_type;location;lat;lon;timestamp;temperature;humidity
19555;DHT22;9924;50.828;6.440;2022-12-19T00:00:25;1.70;99.90
19555;DHT22;9924;50.828;6.440;2022-12-19T00:03:09;1.70;99.90
19555;DHT22;9924;50.828;6.440;2022-12-19T00:05:54;1.70;99.90
19555;DHT22;9924;50.828;6.440;2022-12-19T00:08:42;1.70;99.90
19555;DHT22;9924;50.828;6.440;2022-12-19T00:11:28;1.70;99.90
19555;DHT22;9924;50.828;6.440;2022-12-19T00:14:13;1.80;99.90
19555;DHT22;9924;50.828;6.440;2022-12-19T00:16:57;1.90;99.90
19555;DHT22;9924;50.828;6.440;2022-12-19T00:19:42;1.90;99.90
19555;DHT22;9924;50.828;6.440;2022-12-19T00:22:26;1.90;99.90
19555;DHT22;9924;50.828;6.440;2022-12-19T00:25:10;2.00;99.90
19555;DHT22;9924;50.828;6.440;2022-12-19T00:27:55;2.20;99.90
19555;DHT22;9924;50.828;6.440;2022-12-19T00:30:39;2.40;99.90
19555;DHT22;9924;50.828;6.440;2022-12-19T00:33:24;2.50;99.90
19555;DHT22;9924;50.828;6.440;2022-12-19T00:36:28;2.70;99.90
19555;DHT22;9924;50.828;6.440;2022-12-19T00:39:13;2.80;99.90
19555;DHT22;9924;50.828;6.440;2022-12-19T00:41:57;2.90;99.90
19555;DHT22;9924;50.828;6.440;2022-12-19T00:44:41;2.90;99.90
19555;DHT22;9924;50.828;6.440;2022-12-19T00:47:26;2.90;99.90
19555;DHT22;9924;50.828;6.440;2022-12-19T00:50:10;2.80;99.90
19555;DHT22;9924;50.828;6.440;2022-12-19T00:52:54;2.80;99.90
19555;DHT22;9924;50.828;6.440;2022-12-19T00:55:39;2.80;99.90
19555;DHT22;9924;50.828;6.440;2022-12-19T00:58:23;2.80;99.90
19555;DHT22;9924;50.828;6.440;2022-12-19T01:01:13;2.80;99.90
19555;DHT22;9924;50.828;6.440;2022-12-19T01:04:00;2.80;99.90
19555;DHT22;9924;50.828;6.440;2022-12-19T01:06:45;2.80;99.90
19555;DHT22;9924;50.828;6.440;2022-12-19T01:09:31;2.80;99.90
19555;DHT22;9924;50.828;6.440;2022-12-19T01:12:15;2.70;99.90
19555;DHT22;9924;50.828;6.440;2022-12-19T01:15:19;2.70;99.90
19555;DHT22;9924;50.828;6.440;2022-12-19T01:18:04;2.70;99.90
19555;DHT22;9924;50.828;6.440;2022-12-19T01:20:48;2.70;99.90
19555;DHT22;9924;50.828;6.440;2022-12-19T01:23:34;2.80;99.90
19555;DHT22;9924;50.828;6.440;2022-12-19T01:26:18;2.80;99.90
19555;DHT22;9924;50.828;6.440;2022-12-19T01:29:03;3.00;99.90
19555;DHT22;9924;50.828;6.440;2022-12-19T01:31:48;3.00;99.90
19555;DHT22;9924;50.828;6.440;2022-12-19T01:34:32;3.10;99.90
19555;DHT22;9924;50.828;6.440;2022-12-19T01:37:17;3.10;99.90
19555;DHT22;9924;50.828;6.440;2022-12-19T01:40:02;3.10;99.90
19555;DHT22;9924;50.828;6.440;2022-12-19T01:42:47;3.20;99.90
19555;DHT22;9924;50.828;6.440;2022-12-19T01:45:33;3.30;99.90
19555;DHT22;9924;50.828;6.440;2022-12-19T01:54:00;3.30;99.90
19555;DHT22;9924;50.828;6.440;2022-12-19T01:56:51;3.20;99.90
19555;DHT22;9924;50.828;6.440;2022-12-19T01:59:45;3.30;99.90
19555;DHT22;9924;50.828;6.440;2022-12-19T02:02:43;3.50;99.90
19555;DHT22;9924;50.828;6.440;2022-12-19T02:05:29;3.70;99.90
19555;DHT22;9924;50.828;6.440;2022-12-19T02:08:15;3.80;99.90
19555;DHT22;9924;50.828;6.440;2022-12-19T02:11:00;3.90;99.90
19555;DHT22;9924;50.828;6.440;2022-12-19T02:13:45;3.90;99.90
19555;DHT22;9924;50.828;6.440;2022-12-19T02:16:47;3.90;99.90
19555;DHT22;9924;50.828;6.440;2022-12-19T02:32:09;3.60;99.90
19555;DHT22;9924;50.828;6.440;2022-12-19T02:38:54;3.90;99.90
19555;DHT22;9924;50.828;6.440;2022-12-19T02:41:35;4.20;99.90
19555;DHT22;9924;50.828;6.440;2022-12-19T02:44:56;4.70;99.90
19555;DHT22;9924;50.828;6.440;2022-12-19T02:47:42;5.10;99.90
19555;DHT22;9924;50.828;6.440;2022-12-19T02:50:39;5.30;99.90
19555;DHT22;9924;50.828;6.440;2022-12-19T02:53:24;5.50;99.90
19555;DHT22;9924;50.828;6.440;2022-12-19T02:56:21;5.60;99.90
19555;DHT22;9924;50.828;6.440;2022-12-19T03:04:58;5.70;99.90
19555;DHT22;9924;50.828;6.440;2022-12-19T03:07:52;5.80;99.90
19555;DHT22;9924;50.828;6.440;2022-12-19T03:10:41;6.00;99.90
19555;DHT22;9924;50.828;6.440;2022-12-19T03:13:31;6.20;99.90
19555;DHT22;9924;50.828;6.440;2022-12-19T03:16:17;6.30;99.90
19555;DHT22;9924;50.828;6.440;2022-12-19T03:19:02;6.40;99.90
19555;DHT22;9924;50.828;6.440;2022-12-19T03:21:49;6.50;99.90
19555;DHT22;9924;50.828;6.440;2022-12-19T03:24:36;6.70;99.90
19555;DHT22;9924;50.828;6.440;2022-12-19T03:27:26;6.80;99.90
19555;DHT22;9924;50.828;6.440;2022-12-19T03:30:12;6.80;99.90
19555;DHT22;9924;50.828;6.440;2022-12-19T03:32:57;6.80;99.90
19555;DHT22;9924;50.828;6.440;2022-12-19T03:35:43;6.80;99.90
19555;DHT22;9924;50.828;6.440;2022-12-19T03:38:29;6.80;99.90
19555;DHT22;9924;50.828;6.440;2022-12-19T03:41:15;6.80;99.90
19555;DHT22;9924;50.828;6.440;2022-12-19T03:44:25;6.90;99.90
19555;DHT22;9924;50.828;6.440;2022-12-19T03:47:26;6.90;99.90
19555;DHT22;9924;50.828;6.440;2022-12-19T03:50:12;6.90;99.90
19555;DHT22;9924;50.828;6.440;2022-12-19T03:59:30;6.90;99.90
19555;DHT22;9924;50.828;6.440;2022-12-19T04:02:18;6.90;99.90
19555;DHT22;9924;50.828;6.440;2022-12-19T04:05:10;6.80;99.90
19555;DHT22;9924;50.828;6.440;2022-12-19T04:08:01;6.80;99.90
19555;DHT22;9924;50.828;6.440;2022-12-19T04:10:50;6.80;99.90
19555;DHT22;9924;50.828;6.440;2022-12-19T04:13:48;6.80;99.90
19555;DHT22;9924;50.828;6.440;2022-12-19T04:16:38;6.80;99.90
19555;DHT22;9924;50.828;6.440;2022-12-19T04:19:35;6.70;99.90
19555;DHT22;9924;50.828;6.440;2022-12-19T04:25:17;6.70;99.90
19555;DHT22;9924;50.828;6.440;2022-12-19T04:28:07;6.70;99.90
19555;DHT22;9924;50.828;6.440;2022-12-19T04:30:53;6.70;99.90
19555;DHT22;9924;50.828;6.440;2022-12-19T04:33:38;6.80;99.90
19555;DHT22;9924;50.828;6.440;2022-12-19T04:36:23;6.70;99.90
19555;DHT22;9924;50.828;6.440;2022-12-19T04:39:08;6.60;99.90
19555;DHT22;9924;50.828;6.440;2022-12-19T04:41:52;6.60;99.90
19555;DHT22;9924;50.828;6.440;2022-12-19T04:44:36;6.50;99.90
19555;DHT22;9924;50.828;6.440;2022-12-19T04:47:20;6.50;99.90
19555;DHT22;9924;50.828;6.440;2022-12-19T04:50:05;6.40;99.90
19555;DHT22;9924;50.828;6.440;2022-12-19T04:52:50;6.40;99.90
19555;DHT22;9924;50.828;6.440;2022-12-19T04:55:34;6.40;99.90
19555;DHT22;9924;50.828;6.440;2022-12-19T04:58:19;6.40;99.90
19555;DHT22;9924;50.828;6.440;2022-12-19T05:01:05;6.40;99.90
19555;DHT22;9924;50.828;6.440;2022-12-19T05:03:50;6.50;99.90
19555;DHT22;9924;50.828;6.440;2022-12-19T05:06:35;6.70;99.90
19555;DHT22;9924;50.828;6.440;2022-12-19T05:09:19;6.80;99.90
19555;DHT22;9924;50.828;6.440;2022-12-19T05:12:04;6.80;99.90
19555;DHT22;9924;50.828;6.440;2022-12-19T05:14:49;6.80;99.90
19555;DHT22;9924;50.828;6.440;2022-12-19T05:17:34;6.90;99.90
19555;DHT22;9924;50.828;6.440;2022-12-19T05:20:18;6.90;99.90
19555;DHT22;9924;50.828;6.440;2022-12-19T05:23:03;6.90;99.90
19555;DHT22;9924;50.828;6.440;2022-12-19T05:25:47;7.00;99.90
19555;DHT22;9924;50.828;6.440;2022-12-19T05:28:33;7.10;99.90
19555;DHT22;9924;50.828;6.440;2022-12-19T05:31:19;7.10;99.90
19555;DHT22;9924;50.828;6.440;2022-12-19T05:34:04;7.10;99.90
19555;DHT22;9924;50.828;6.440;2022-12-19T05:36:48;7.10;99.90
19555;DHT22;9924;50.828;6.440;2022-12-19T05:39:32;7.20;99.90
19555;DHT22;9924;50.828;6.440;2022-12-19T05:42:18;7.20;99.90
19555;DHT22;9924;50.828;6.440;2022-12-19T05:45:02;7.20;99.90
19555;DHT22;9924;50.828;6.440;2022-12-19T05:47:47;7.30;99.90
19555;DHT22;9924;50.828;6.440;2022-12-19T05:50:32;7.70;99.90
19555;DHT22;9924;50.828;6.440;2022-12-19T05:53:17;8.10;99.90
19555;DHT22;9924;50.828;6.440;2022-12-19T05:58:50;8.40;99.90
19555;DHT22;9924;50.828;6.440;2022-12-19T06:01:35;8.60;99.90
19555;DHT22;9924;50.828;6.440;2022-12-19T06:04:19;8.70;99.90
19555;DHT22;9924;50.828;6.440;2022-12-19T06:07:03;8.70;99.90
19555;DHT22;9924;50.828;6.440;2022-12-19T06:09:48;8.50;99.90
19555;DHT22;9924;50.828;6.440;2022-12-19T06:12:33;8.50;99.90
19555;DHT22;9924;50.828;6.440;2022-12-19T06:15:17;8.60;99.90
19555;DHT22;9924;50.828;6.440;2022-12-19T06:18:02;8.40;99.90
19555;DHT22;9924;50.828;6.440;2022-12-19T06:20:58;8.30;99.90
19555;DHT22;9924;50.828;6.440;2022-12-19T06:23:43;8.20;99.90
19555;DHT22;9924;50.828;6.440;2022-12-19T06:26:28;8.20;99.90
19555;DHT22;9924;50.828;6.440;2022-12-19T06:29:13;8.10;99.90
19555;DHT22;9924;50.828;6.440;2022-12-19T06:31:57;8.00;99.90
19555;DHT22;9924;50.828;6.440;2022-12-19T06:34:41;8.00;99.90
19555;DHT22;9924;50.828;6.440;2022-12-19T06:37:26;8.00;99.90
19555;DHT22;9924;50.828;6.440;2022-12-19T06:40:12;8.10;99.90
19555;DHT22;9924;50.828;6.440;2022-12-19T06:43:16;8.10;99.90
19555;DHT22;9924;50.828;6.440;2022-12-19T06:46:01;7.90;99.90
19555;DHT22;9924;50.828;6.440;2022-12-19T06:48:45;7.70;99.90
19555;DHT22;9924;50.828;6.440;2022-12-19T06:51:30;7.70;99.90
19555;DHT22;9924;50.828;6.440;2022-12-19T06:54:15;7.70;99.90
19555;DHT22;9924;50.828;6.440;2022-12-19T06:57:00;7.60;99.90
19555;DHT22;9924;50.828;6.440;2022-12-19T06:59:44;7.50;99.90
19555;DHT22;9924;50.828;6.440;2022-12-19T07:02:30;7.40;99.90
19555;DHT22;9924;50.828;6.440;2022-12-19T07:05:15;7.40;99.90
19555;DHT22;9924;50.828;6.440;2022-12-19T07:08:00;7.40;99.90
19555;DHT22;9924;50.828;6.440;2022-12-19T07:10:45;7.30;99.90
19555;DHT22;9924;50.828;6.440;2022-12-19T07:13:30;7.30;99.90
19555;DHT22;9924;50.828;6.440;2022-12-19T07:16:14;7.30;99.90
19555;DHT22;9924;50.828;6.440;2022-12-19T07:18:58;7.40;99.90
19555;DHT22;9924;50.828;6.440;2022-12-19T07:21:43;7.50;99.90
19555;DHT22;9924;50.828;6.440;2022-12-19T07:24:28;7.50;99.90
19555;DHT22;9924;50.828;6.440;2022-12-19T07:27:12;7.50;99.90
19555;DHT22;9924;50.828;6.440;2022-12-19T07:29:57;7.50;99.90
19555;DHT22;9924;50.828;6.440;2022-12-19T07:32:41;7.50;99.90
19555;DHT22;9924;50.828;6.440;2022-12-19T07:35:26;7.40;99.90
19555;DHT22;9924;50.828;6.440;2022-12-19T07:38:10;7.40;99.90
19555;DHT22;9924;50.828;6.440;2022-12-19T07:40:55;7.30;99.90
19555;DHT22;9924;50.828;6.440;2022-12-19T07:43:39;7.30;99.90
19555;DHT22;9924;50.828;6.440;2022-12-19T07:46:26;7.30;99.90
19555;DHT22;9924;50.828;6.440;2022-12-19T07:49:10;7.50;99.90
19555;DHT22;9924;50.828;6.440;2022-12-19T07:51:54;7.50;99.90
19555;DHT22;9924;50.828;6.440;2022-12-19T07:54:39;7.50;99.90
19555;DHT22;9924;50.828;6.440;2022-12-19T07:57:24;7.50;99.90
19555;DHT22;9924;50.828;6.440;2022-12-19T08:00:09;7.60;99.90
19555;DHT22;9924;50.828;6.440;2022-12-19T08:02:53;7.60;99.90
19555;DHT22;9924;50.828;6.440;2022-12-19T08:05:37;7.60;99.90
19555;DHT22;9924;50.828;6.440;2022-12-19T08:08:22;7.60;99.90
19555;DHT22;9924;50.828;6.440;2022-12-19T08:11:13;7.60;99.90
19555;DHT22;9924;50.828;6.440;2022-12-19T08:13:57;7.70;99.90
19555;DHT22;9924;50.828;6.440;2022-12-19T08:16:41;7.70;99.90
19555;DHT22;9924;50.828;6.440;2022-12-19T08:19:26;7.70;99.90
19555;DHT22;9924;50.828;6.440;2022-12-19T08:22:10;7.80;99.90
19555;DHT22;9924;50.828;6.440;2022-12-19T08:24:55;7.80;99.90
19555;DHT22;9924;50.828;6.440;2022-12-19T08:27:40;7.80;99.90
19555;DHT22;9924;50.828;6.440;2022-12-19T08:30:26;7.70;99.90
19555;DHT22;9924;50.828;6.440;2022-12-19T08:33:10;7.70;99.90
19555;DHT22;9924;50.828;6.440;2022-12-19T08:35:54;7.70;99.90
19555;DHT22;9924;50.828;6.440;2022-12-19T08:38:40;7.60;99.90
19555;DHT22;9924;50.828;6.440;2022-12-19T08:41:24;7.60;99.90
19555;DHT22;9924;50.828;6.440;2022-12-19T08:44:10;7.60;99.90
19555;DHT22;9924;50.828;6.440;2022-12-19T08:46:55;7.60;99.90
19555;DHT22;9924;50.828;6.440;2022-12-19T08:49:39;7.60;99.90
19555;DHT22;9924;50.828;6.440;2022-12-19T08:52:24;7.70;99.90
19555;DHT22;9924;50.828;6.440;2022-12-19T08:55:08;7.70;99.90
19555;DHT22;9924;50.828;6.440;2022-12-19T08:57:53;7.70;99.90
19555;DHT22;9924;50.828;6.440;2022-12-19T09:00:38;7.70;99.90
19555;DHT22;9924;50.828;6.440;2022-12-19T09:03:22;7.80;99.90
19555;DHT22;9924;50.828;6.440;2022-12-19T09:06:08;7.80;99.90
19555;DHT22;9924;50.828;6.440;2022-12-19T09:08:53;7.90;99.90
19555;DHT22;9924;50.828;6.440;2022-12-19T09:11:37;8.00;99.90
19555;DHT22;9924;50.828;6.440;2022-12-19T09:14:22;8.00;99.90
19555;DHT22;9924;50.828;6.440;2022-12-19T09:17:06;8.00;99.90
19555;DHT22;9924;50.828;6.440;2022-12-19T09:19:51;8.10;99.90
19555;DHT22;9924;50.828;6.440;2022-12-19T09:22:35;8.20;99.90
19555;DHT22;9924;50.828;6.440;2022-12-19T09:25:19;8.20;99.90
19555;DHT22;9924;50.828;6.440;2022-12-19T09:28:04;8.20;99.90
19555;DHT22;9924;50.828;6.440;2022-12-19T09:31:00;8.20;99.90
19555;DHT22;9924;50.828;6.440;2022-12-19T09:33:45;8.30;99.90
19555;DHT22;9924;50.828;6.440;2022-12-19T09:36:29;8.30;99.90
19555;DHT22;9924;50.828;6.440;2022-12-19T09:39:14;8.40;99.90
19555;DHT22;9924;50.828;6.440;2022-12-19T09:42:35;8.50;99.90
19555;DHT22;9924;50.828;6.440;2022-12-19T09:48:23;8.70;99.90
19555;DHT22;9924;50.828;6.440;2022-12-19T09:51:20;8.90;99.90
19555;DHT22;9924;50.828;6.440;2022-12-19T09:54:17;9.00;99.90
19555;DHT22;9924;50.828;6.440;2022-12-19T09:57:17;9.20;99.90
19555;DHT22;9924;50.828;6.440;2022-12-19T10:00:14;9.30;99.90
19555;DHT22;9924;50.828;6.440;2022-12-19T10:03:25;9.40;99.90
19555;DHT22;9924;50.828;6.440;2022-12-19T10:06:16;9.50;99.90
19555;DHT22;9924;50.828;6.440;2022-12-19T10:09:02;9.60;99.90
19555;DHT22;9924;50.828;6.440;2022-12-19T10:18:52;9.90;99.90
19555;DHT22;9924;50.828;6.440;2022-12-19T10:21:56;10.00;99.90
19555;DHT22;9924;50.828;6.440;2022-12-19T10:25:13;10.10;99.90
19555;DHT22;9924;50.828;6.440;2022-12-19T10:31:22;10.70;99.90
19555;DHT22;9924;50.828;6.440;2022-12-19T10:37:14;10.80;99.90
19555;DHT22;9924;50.828;6.440;2022-12-19T10:40:14;10.90;99.90
19555;DHT22;9924;50.828;6.440;2022-12-19T10:43:28;10.90;99.90
19555;DHT22;9924;50.828;6.440;2022-12-19T10:46:39;11.10;99.90
19555;DHT22;9924;50.828;6.440;2022-12-19T10:49:27;11.00;99.90
19555;DHT22;9924;50.828;6.440;2022-12-19T10:52:11;10.90;99.90
19555;DHT22;9924;50.828;6.440;2022-12-19T10:54:56;10.80;99.90
19555;DHT22;9924;50.828;6.440;2022-12-19T10:57:41;10.60;99.90
19555;DHT22;9924;50.828;6.440;2022-12-19T11:00:25;10.50;99.90
19555;DHT22;9924;50.828;6.440;2022-12-19T11:03:14;10.40;99.90
19555;DHT22;9924;50.828;6.440;2022-12-19T11:06:00;10.40;99.90
19555;DHT22;9924;50.828;6.440;2022-12-19T11:08:45;10.40;99.90
19555;DHT22;9924;50.828;6.440;2022-12-19T11:11:33;10.40;99.90
19555;DHT22;9924;50.828;6.440;2022-12-19T11:14:21;10.40;99.90
19555;DHT22;9924;50.828;6.440;2022-12-19T11:17:26;10.30;99.90
19555;DHT22;9924;50.828;6.440;2022-12-19T11:20:19;10.30;99.90
19555;DHT22;9924;50.828;6.440;2022-12-19T11:23:03;10.40;99.90
19555;DHT22;9924;50.828;6.440;2022-12-19T11:26:03;10.60;99.90
19555;DHT22;9924;50.828;6.440;2022-12-19T11:28:48;10.60;99.90
19555;DHT22;9924;50.828;6.440;2022-12-19T11:31:35;10.50;99.90
19555;DHT22;9924;50.828;6.440;2022-12-19T11:34:22;10.70;99.90
19555;DHT22;9924;50.828;6.440;2022-12-19T11:37:26;10.90;99.90
19555;DHT22;9924;50.828;6.440;2022-12-19T11:46:51;11.00;99.90
19555;DHT22;9924;50.828;6.440;2022-12-19T11:49:41;11.00;99.90
19555;DHT22;9924;50.828;6.440;2022-12-19T11:52:57;11.10;99.90
19555;DHT22;9924;50.828;6.440;2022-12-19T11:55:52;11.20;99.90
19555;DHT22;9924;50.828;6.440;2022-12-19T11:58:37;11.20;99.90
19555;DHT22;9924;50.828;6.440;2022-12-19T12:07:39;11.00;99.90
19555;DHT22;9924;50.828;6.440;2022-12-19T12:10:23;11.00;99.90
19555;DHT22;9924;50.828;6.440;2022-12-19T12:13:17;11.00;99.90
19555;DHT22;9924;50.828;6.440;2022-12-19T12:16:17;11.20;99.90
19555;DHT22;9924;50.828;6.440;2022-12-19T12:25:51;11.40;99.90
19555;DHT22;9924;50.828;6.440;2022-12-19T12:44:52;12.60;99.90
19555;DHT22;9924;50.828;6.440;2022-12-19T12:47:39;12.80;99.90
19555;DHT22;9924;50.828;6.440;2022-12-19T12:50:24;12.80;99.90
19555;DHT22;9924;50.828;6.440;2022-12-19T12:53:09;12.70;99.90
19555;DHT22;9924;50.828;6.440;2022-12-19T12:55:58;12.70;99.90
19555;DHT22;9924;50.828;6.440;2022-12-19T13:01:38;13.00;99.90
19555;DHT22;9924;50.828;6.440;2022-12-19T13:04:34;13.00;99.90
19555;DHT22;9924;50.828;6.440;2022-12-19T13:07:34;13.20;99.90
19555;DHT22;9924;50.828;6.440;2022-12-19T13:10:27;13.40;99.90
19555;DHT22;9924;50.828;6.440;2022-12-19T13:13:13;13.30;99.90
19555;DHT22;9924;50.828;6.440;2022-12-19T13:15:58;13.30;99.90
19555;DHT22;9924;50.828;6.440;2022-12-19T13:19:02;13.10;99.90
19555;DHT22;9924;50.828;6.440;2022-12-19T13:24:55;12.80;99.90
19555;DHT22;9924;50.828;6.440;2022-12-19T13:27:40;12.60;99.90
19555;DHT22;9924;50.828;6.440;2022-12-19T13:30:24;12.30;99.90
19555;DHT22;9924;50.828;6.440;2022-12-19T13:33:09;12.20;99.90
19555;DHT22;9924;50.828;6.440;2022-12-19T13:35:53;12.00;99.90
19555;DHT22;9924;50.828;6.440;2022-12-19T13:38:47;11.80;99.90
19555;DHT22;9924;50.828;6.440;2022-12-19T13:41:39;11.80;99.90
19555;DHT22;9924;50.828;6.440;2022-12-19T13:44:43;11.80;99.90
19555;DHT22;9924;50.828;6.440;2022-12-19T13:47:34;11.70;99.90
19555;DHT22;9924;50.828;6.440;2022-12-19T13:50:39;11.60;99.90
19555;DHT22;9924;50.828;6.440;2022-12-19T13:53:27;11.50;99.90
19555;DHT22;9924;50.828;6.440;2022-12-19T13:56:14;11.40;99.90
19555;DHT22;9924;50.828;6.440;2022-12-19T13:59:01;11.30;99.90
19555;DHT22;9924;50.828;6.440;2022-12-19T14:01:47;11.10;99.90
19555;DHT22;9924;50.828;6.440;2022-12-19T14:04:33;10.90;99.90
19555;DHT22;9924;50.828;6.440;2022-12-19T14:07:37;10.80;99.90
19555;DHT22;9924;50.828;6.440;2022-12-19T14:10:27;10.60;99.90
19555;DHT22;9924;50.828;6.440;2022-12-19T14:13:18;10.40;99.90
19555;DHT22;9924;50.828;6.440;2022-12-19T14:16:22;10.30;99.90
19555;DHT22;9924;50.828;6.440;2022-12-19T14:19:22;10.20;99.90
19555;DHT22;9924;50.828;6.440;2022-12-19T14:22:19;10.10;99.90
19555;DHT22;9924;50.828;6.440;2022-12-19T14:25:04;10.00;99.90
19555;DHT22;9924;50.828;6.440;2022-12-19T14:27:59;9.90;99.90
19555;DHT22;9924;50.828;6.440;2022-12-19T14:30:50;9.80;99.90
19555;DHT22;9924;50.828;6.440;2022-12-19T14:33:40;9.80;99.90
19555;DHT22;9924;50.828;6.440;2022-12-19T14:36:28;9.70;99.90
19555;DHT22;9924;50.828;6.440;2022-12-19T14:39:17;9.70;99.90
19555;DHT22;9924;50.828;6.440;2022-12-19T14:42:05;9.70;99.90
19555;DHT22;9924;50.828;6.440;2022-12-19T14:45:32;9.70;99.90
19555;DHT22;9924;50.828;6.440;2022-12-19T14:48:34;9.70;99.90
19555;DHT22;9924;50.828;6.440;2022-12-19T14:51:32;9.70;99.90
19555;DHT22;9924;50.828;6.440;2022-12-19T14:54:20;9.60;99.90
19555;DHT22;9924;50.828;6.440;2022-12-19T14:57:14;9.60;99.90
19555;DHT22;9924;50.828;6.440;2022-12-19T14:59:58;9.60;99.90
19555;DHT22;9924;50.828;6.440;2022-12-19T15:02:43;9.50;99.90
19555;DHT22;9924;50.828;6.440;2022-12-19T15:05:28;9.60;99.90
19555;DHT22;9924;50.828;6.440;2022-12-19T15:08:15;9.50;99.90
19555;DHT22;9924;50.828;6.440;2022-12-19T15:11:05;9.50;99.90
19555;DHT22;9924;50.828;6.440;2022-12-19T15:14:09;9.60;99.90
19555;DHT22;9924;50.828;6.440;2022-12-19T15:17:02;9.60;99.90
19555;DHT22;9924;50.828;6.440;2022-12-19T15:19:49;9.60;99.90
19555;DHT22;9924;50.828;6.440;2022-12-19T15:22:33;9.60;99.90
19555;DHT22;9924;50.828;6.440;2022-12-19T15:25:17;9.70;99.90
19555;DHT22;9924;50.828;6.440;2022-12-19T15:28:10;9.70;99.90
19555;DHT22;9924;50.828;6.440;2022-12-19T15:30:58;9.70;99.90
19555;DHT22;9924;50.828;6.440;2022-12-19T15:33:43;9.70;99.90
19555;DHT22;9924;50.828;6.440;2022-12-19T15:36:28;9.70;99.90
19555;DHT22;9924;50.828;6.440;2022-12-19T15:39:12;9.70;99.90
19555;DHT22;9924;50.828;6.440;2022-12-19T15:41:59;9.70;99.90
19555;DHT22;9924;50.828;6.440;2022-12-19T15:44:44;9.70;99.90
19555;DHT22;9924;50.828;6.440;2022-12-19T15:47:34;9.70;99.90
19555;DHT22;9924;50.828;6.440;2022-12-19T15:50:25;9.70;99.90
19555;DHT22;9924;50.828;6.440;2022-12-19T15:53:21;9.70;99.90
19555;DHT22;9924;50.828;6.440;2022-12-19T15:59:27;9.70;99.90
19555;DHT22;9924;50.828;6.440;2022-12-19T16:02:16;9.70;99.90
19555;DHT22;9924;50.828;6.440;2022-12-19T16:05:01;9.90;99.90
19555;DHT22;9924;50.828;6.440;2022-12-19T16:07:46;9.90;99.90
19555;DHT22;9924;50.828;6.440;2022-12-19T16:10:31;10.00;99.90
19555;DHT22;9924;50.828;6.440;2022-12-19T16:13:25;10.00;99.90
19555;DHT22;9924;50.828;6.440;2022-12-19T16:16:10;10.00;99.90
19555;DHT22;9924;50.828;6.440;2022-12-19T16:18:54;10.10;99.90
19555;DHT22;9924;50.828;6.440;2022-12-19T16:21:39;10.10;99.90
19555;DHT22;9924;50.828;6.440;2022-12-19T16:24:23;10.30;99.90
19555;DHT22;9924;50.828;6.440;2022-12-19T16:27:10;10.30;99.90
19555;DHT22;9924;50.828;6.440;2022-12-19T16:30:21;10.50;99.90
19555;DHT22;9924;50.828;6.440;2022-12-19T16:33:45;10.60;99.90
19555;DHT22;9924;50.828;6.440;2022-12-19T16:36:22;10.80;99.90
19555;DHT22;9924;50.828;6.440;2022-12-19T16:39:07;10.90;99.90
19555;DHT22;9924;50.828;6.440;2022-12-19T16:41:51;11.00;99.90
19555;DHT22;9924;50.828;6.440;2022-12-19T16:44:35;11.00;99.90
19555;DHT22;9924;50.828;6.440;2022-12-19T16:47:20;11.00;99.90
19555;DHT22;9924;50.828;6.440;2022-12-19T16:50:18;10.80;99.90
19555;DHT22;9924;50.828;6.440;2022-12-19T16:53:03;10.70;99.90
19555;DHT22;9924;50.828;6.440;2022-12-19T16:55:47;10.50;99.90
19555;DHT22;9924;50.828;6.440;2022-12-19T16:58:33;10.70;99.90
19555;DHT22;9924;50.828;6.440;2022-12-19T17:01:19;10.70;99.90
19555;DHT22;9924;50.828;6.440;2022-12-19T17:04:03;10.70;99.90
19555;DHT22;9924;50.828;6.440;2022-12-19T17:06:49;10.80;99.90
19555;DHT22;9924;50.828;6.440;2022-12-19T17:09:34;10.80;99.90
19555;DHT22;9924;50.828;6.440;2022-12-19T17:12:19;10.90;99.90
19555;DHT22;9924;50.828;6.440;2022-12-19T17:15:07;10.90;99.90
19555;DHT22;9924;50.828;6.440;2022-12-19T17:18:00;10.90;99.90
19555;DHT22;9924;50.828;6.440;2022-12-19T17:20:45;10.70;99.90
19555;DHT22;9924;50.828;6.440;2022-12-19T17:23:30;10.80;99.90
19555;DHT22;9924;50.828;6.440;2022-12-19T17:26:16;10.80;99.90
19555;DHT22;9924;50.828;6.440;2022-12-19T17:29:10;10.80;99.90
19555;DHT22;9924;50.828;6.440;2022-12-19T17:31:55;10.80;99.90
19555;DHT22;9924;50.828;6.440;2022-12-19T17:34:39;10.80;99.90
19555;DHT22;9924;50.828;6.440;2022-12-19T17:37:24;10.80;99.90
19555;DHT22;9924;50.828;6.440;2022-12-19T17:40:25;10.80;99.90
19555;DHT22;9924;50.828;6.440;2022-12-19T17:43:12;10.70;99.90
19555;DHT22;9924;50.828;6.440;2022-12-19T17:45:57;10.70;99.90
19555;DHT22;9924;50.828;6.440;2022-12-19T17:48:42;10.70;99.90
19555;DHT22;9924;50.828;6.440;2022-12-19T17:51:28;10.80;99.90
19555;DHT22;9924;50.828;6.440;2022-12-19T17:54:13;10.80;99.90
19555;DHT22;9924;50.828;6.440;2022-12-19T17:56:57;10.90;99.90
19555;DHT22;9924;50.828;6.440;2022-12-19T17:59:48;10.90;99.90
19555;DHT22;9924;50.828;6.440;2022-12-19T18:02:32;11.00;99.90
19555;DHT22;9924;50.828;6.440;2022-12-19T18:05:33;11.00;99.90
19555;DHT22;9924;50.828;6.440;2022-12-19T18:08:30;11.10;99.90
19555;DHT22;9924;50.828;6.440;2022-12-19T18:11:21;11.10;99.90
19555;DHT22;9924;50.828;6.440;2022-12-19T18:14:06;11.00;99.90
19555;DHT22;9924;50.828;6.440;2022-12-19T18:16:50;10.90;99.90
19555;DHT22;9924;50.828;6.440;2022-12-19T18:19:35;10.90;99.90
19555;DHT22;9924;50.828;6.440;2022-12-19T18:22:20;10.80;99.90
19555;DHT22;9924;50.828;6.440;2022-12-19T18:25:14;10.70;99.90
19555;DHT22;9924;50.828;6.440;2022-12-19T18:28:02;10.70;99.90
19555;DHT22;9924;50.828;6.440;2022-12-19T18:30:49;10.70;99.90
19555;DHT22;9924;50.828;6.440;2022-12-19T18:33:41;10.70;99.90
19555;DHT22;9924;50.828;6.440;2022-12-19T18:36:28;10.70;99.90
19555;DHT22;9924;50.828;6.440;2022-12-19T18:39:22;10.60;99.90
19555;DHT22;9924;50.828;6.440;2022-12-19T18:42:20;10.70;99.90
19555;DHT22;9924;50.828;6.440;2022-12-19T18:45:06;10.70;99.90
19555;DHT22;9924;50.828;6.440;2022-12-19T18:47:54;10.80;99.90
19555;DHT22;9924;50.828;6.440;2022-12-19T18:50:40;10.80;99.90
19555;DHT22;9924;50.828;6.440;2022-12-19T18:53:26;10.70;99.90
19555;DHT22;9924;50.828;6.440;2022-12-19T18:56:15;10.70;99.90
19555;DHT22;9924;50.828;6.440;2022-12-19T18:59:00;10.70;99.90
19555;DHT22;9924;50.828;6.440;2022-12-19T19:01:47;10.70;99.90
19555;DHT22;9924;50.828;6.440;2022-12-19T19:04:32;10.70;99.90
19555;DHT22;9924;50.828;6.440;2022-12-19T19:07:16;10.60;99.90
19555;DHT22;9924;50.828;6.440;2022-12-19T19:10:00;10.80;99.90
19555;DHT22;9924;50.828;6.440;2022-12-19T19:12:48;10.80;99.90
19555;DHT22;9924;50.828;6.440;2022-12-19T19:15:36;10.80;99.90
19555;DHT22;9924;50.828;6.440;2022-12-19T19:18:38;10.80;99.90
19555;DHT22;9924;50.828;6.440;2022-12-19T19:21:27;10.90;99.90
19555;DHT22;9924;50.828;6.440;2022-12-19T19:24:16;11.00;99.90
19555;DHT22;9924;50.828;6.440;2022-12-19T19:27:02;11.10;99.90
19555;DHT22;9924;50.828;6.440;2022-12-19T19:29:47;11.10;99.90
19555;DHT22;9924;50.828;6.440;2022-12-19T19:32:36;11.10;99.90
19555;DHT22;9924;50.828;6.440;2022-12-19T19:35:24;11.10;99.90
19555;DHT22;9924;50.828;6.440;2022-12-19T19:38:10;11.30;99.90
19555;DHT22;9924;50.828;6.440;2022-12-19T19:40:55;11.50;99.90
19555;DHT22;9924;50.828;6.440;2022-12-19T19:43:42;11.40;99.90
19555;DHT22;9924;50.828;6.440;2022-12-19T19:46:27;11.60;99.90
19555;DHT22;9924;50.828;6.440;2022-12-19T19:49:11;11.70;99.90
19555;DHT22;9924;50.828;6.440;2022-12-19T19:51:56;11.60;99.90